createdAt,value
2018-06-11T00:01:39.277Z,94.07
2018-06-11T00:04:07.805Z,99.43
2018-06-11T00:06:36.289Z,95.80
2018-06-11T00:09:07.896Z,70.70
2018-06-11T00:11:36.780Z,92.07
2018-06-11T00:14:06.212Z,95.83
2018-06-11T00:16:35.148Z,109.73
2018-06-11T00:19:03.889Z,114.87
2018-06-11T00:21:32.631Z,107.27
2018-06-11T00:24:00.838Z,121.63
2018-06-11T00:26:29.407Z,101.13
2018-06-11T00:28:57.929Z,116.40
2018-06-11T00:31:26.473Z,97.90
2018-06-11T00:33:55.194Z,105.83
2018-06-11T00:36:23.725Z,97.83
2018-06-11T00:38:52.285Z,88.67
2018-06-11T00:41:20.826Z,84.53
2018-06-11T00:43:49.330Z,88.40
2018-06-11T00:46:17.811Z,90.80
2018-06-11T00:48:46.435Z,107.90
2018-06-11T00:51:14.946Z,92.57
2018-06-11T00:53:44.089Z,86.50
2018-06-11T00:56:12.762Z,99.80
2018-06-11T00:58:41.494Z,93.17
2018-06-11T01:01:10.047Z,92.13
2018-06-11T01:03:38.549Z,86.60
2018-06-11T01:06:07.094Z,97.97
2018-06-11T01:08:35.626Z,94.37
2018-06-11T01:11:04.241Z,95.20
2018-06-11T01:13:32.720Z,76.63
2018-06-11T01:16:01.267Z,79.40
2018-06-11T01:18:29.866Z,83.37
2018-06-11T01:20:58.430Z,96.80
2018-06-11T01:23:26.933Z,91.33
2018-06-11T01:25:55.457Z,104.83
2018-06-11T01:28:24.007Z,99.57
2018-06-11T01:30:52.516Z,108.70
2018-06-11T01:33:21.037Z,110.27
2018-06-11T01:35:49.673Z,112.17
2018-06-11T01:38:18.169Z,60.83
2018-06-11T01:40:46.735Z,80.10
2018-06-11T01:43:15.227Z,69.30
2018-06-11T01:45:43.755Z,97.23
2018-06-11T01:48:12.290Z,106.63
2018-06-11T01:50:40.793Z,134.47
2018-06-11T01:53:09.335Z,136.33
2018-06-11T01:55:37.825Z,166.23
2018-06-11T01:58:06.072Z,166.70
2018-06-11T02:00:34.585Z,166.37
2018-06-11T02:03:02.768Z,163.00
2018-06-11T02:05:31.317Z,160.90
2018-06-11T02:07:59.808Z,161.47
2018-06-11T02:10:28.345Z,162.73
2018-06-11T02:12:56.945Z,180.83
2018-06-11T02:15:25.689Z,165.67
2018-06-11T02:17:54.234Z,153.03
2018-06-11T02:20:22.736Z,166.87
2018-06-11T02:22:51.253Z,159.83
2018-06-11T02:25:19.741Z,154.60
2018-06-11T02:27:48.285Z,142.87
2018-06-11T02:30:16.629Z,144.10
2018-06-11T02:32:45.148Z,130.77
2018-06-11T02:35:13.660Z,165.27
2018-06-11T02:37:42.261Z,152.67
2018-06-11T02:40:10.764Z,153.80
2018-06-11T02:42:39.273Z,148.30
2018-06-11T02:45:07.806Z,153.17
2018-06-11T02:47:36.510Z,144.40
2018-06-11T02:50:05.965Z,117.10
2018-06-11T02:52:34.654Z,117.43
2018-06-11T02:55:03.193Z,133.93
2018-06-11T02:57:31.732Z,128.53
2018-06-11T03:00:06.603Z,146.13
2018-06-11T03:02:35.123Z,104.50
2018-06-11T03:05:03.390Z,125.97
2018-06-11T03:07:31.949Z,121.70
2018-06-11T03:10:00.546Z,119.53
2018-06-11T03:12:29.104Z,122.93
2018-06-11T03:14:58.040Z,126.80
2018-06-11T03:17:26.548Z,152.83
2018-06-11T03:19:55.102Z,157.50
2018-06-11T03:22:23.640Z,144.03
2018-06-11T03:24:52.269Z,130.87
2018-06-11T03:27:20.844Z,122.37
2018-06-11T03:29:49.570Z,125.40
2018-06-11T03:32:18.120Z,140.17
2018-06-11T03:34:46.625Z,137.80
2018-06-11T03:37:15.164Z,130.33
2018-06-11T03:39:43.714Z,123.13
2018-06-11T03:42:12.303Z,127.63
2018-06-11T03:44:40.868Z,122.43
2018-06-11T03:47:09.468Z,132.10
2018-06-11T03:49:38.042Z,102.70
2018-06-11T03:52:06.820Z,136.87
2018-06-11T03:54:35.610Z,123.73
2018-06-11T03:57:04.230Z,146.37
2018-06-11T03:59:32.754Z,117.23
2018-06-11T04:02:01.379Z,119.47
2018-06-11T04:04:29.908Z,108.17
2018-06-11T04:06:58.436Z,117.70
2018-06-11T04:09:27.027Z,123.77
2018-06-11T04:12:00.079Z,121.27
2018-06-11T04:14:28.616Z,118.77
2018-06-11T04:16:57.437Z,124.60
2018-06-11T04:19:26.010Z,122.40
2018-06-11T04:21:54.582Z,142.03
2018-06-11T04:24:23.108Z,122.77
2018-06-11T04:26:51.713Z,139.97
2018-06-11T04:29:20.304Z,147.77
2018-06-11T04:31:48.857Z,144.67
2018-06-11T04:34:17.398Z,139.87
2018-06-11T04:36:45.914Z,140.30
2018-06-11T04:39:14.445Z,151.87
2018-06-11T04:41:42.944Z,143.63
2018-06-11T04:44:11.517Z,125.17
2018-06-11T04:46:40.058Z,120.10
2018-06-11T04:49:08.590Z,128.10
2018-06-11T04:51:37.721Z,122.90
2018-06-11T04:54:06.460Z,102.40
2018-06-11T04:56:35.009Z,104.53
2018-06-11T04:59:03.520Z,103.80
2018-06-11T05:01:32.101Z,77.60
2018-06-11T05:04:00.825Z,62.60
2018-06-11T05:06:29.377Z,52.30
2018-06-11T05:08:57.934Z,74.33
2018-06-11T05:11:26.837Z,73.33
2018-06-11T05:13:55.080Z,81.57
2018-06-11T05:16:23.579Z,80.00
2018-06-11T05:18:52.185Z,61.67
2018-06-11T05:21:21.946Z,67.53
2018-06-11T05:23:50.691Z,57.60
2018-06-11T05:26:19.306Z,54.07
2018-06-11T05:28:47.920Z,59.47
2018-06-11T05:31:16.430Z,42.60
2018-06-11T05:33:45.025Z,44.00
2018-06-11T05:36:13.321Z,39.97
2018-06-11T05:38:41.915Z,33.83
2018-06-11T05:41:10.467Z,34.57
2018-06-11T05:43:38.795Z,35.60
2018-06-11T05:46:07.319Z,32.57
2018-06-11T05:48:35.941Z,31.13
2018-06-11T05:51:04.498Z,30.97
2018-06-11T05:53:33.098Z,42.40
2018-06-11T05:56:01.707Z,30.57
2018-06-11T05:58:30.322Z,40.40
2018-06-11T06:00:58.911Z,29.73
2018-06-11T06:03:27.453Z,31.80
2018-06-11T06:05:56.101Z,31.50
2018-06-11T06:08:24.373Z,28.77
2018-06-11T06:10:53.041Z,28.37
2018-06-11T06:13:21.640Z,32.77
2018-06-11T06:15:50.135Z,35.37
2018-06-11T06:18:18.662Z,37.67
2018-06-11T06:20:47.165Z,48.17
2018-06-11T06:23:15.779Z,58.87
2018-06-11T06:25:44.306Z,57.23
2018-06-11T06:28:12.899Z,62.33
2018-06-11T06:30:41.421Z,54.73
2018-06-11T06:33:10.030Z,43.33
2018-06-11T06:35:38.511Z,44.07
2018-06-11T06:38:07.332Z,44.53
2018-06-11T06:40:36.011Z,41.07
2018-06-11T06:43:04.598Z,41.83
2018-06-11T06:45:33.201Z,41.50
2018-06-11T06:48:01.746Z,35.43
2018-06-11T06:50:30.281Z,57.43
2018-06-11T06:52:59.042Z,56.50
2018-06-11T06:55:27.604Z,56.57
2018-06-11T06:57:56.186Z,81.73
2018-06-11T07:00:24.726Z,71.43
2018-06-11T07:02:53.607Z,85.70
2018-06-11T07:05:22.115Z,81.23
2018-06-11T07:07:50.352Z,102.53
2018-06-11T07:10:18.916Z,108.80
2018-06-11T07:12:47.467Z,113.40
2018-06-11T07:15:16.034Z,152.17
2018-06-11T07:17:44.550Z,107.23
2018-06-11T07:20:13.082Z,124.00
2018-06-11T07:22:41.758Z,134.10
2018-06-11T07:25:10.377Z,122.43
2018-06-11T07:27:38.589Z,96.53
2018-06-11T07:30:07.217Z,134.60
2018-06-11T07:32:35.813Z,100.80
2018-06-11T07:35:04.362Z,118.53
2018-06-11T07:37:32.935Z,97.57
2018-06-11T07:40:01.423Z,64.57
2018-06-11T07:42:29.961Z,127.70
2018-06-11T07:44:58.193Z,118.27
2018-06-11T07:47:26.682Z,88.97
2018-06-11T07:49:55.217Z,104.33
2018-06-11T07:52:23.730Z,87.23
2018-06-11T07:54:52.232Z,90.77
2018-06-11T07:57:20.785Z,111.43
2018-06-11T07:59:49.330Z,79.73
2018-06-11T08:02:17.866Z,71.00
2018-06-11T08:04:46.405Z,75.20
2018-06-11T08:07:14.914Z,80.20
2018-06-11T08:09:49.638Z,78.57
2018-06-11T08:12:18.186Z,87.33
2018-06-11T08:14:46.748Z,118.77
2018-06-11T08:17:15.289Z,93.47
2018-06-11T08:19:43.894Z,136.83
2018-06-11T08:22:12.452Z,135.60
2018-06-11T08:24:40.958Z,132.77
2018-06-11T08:27:09.487Z,89.57
2018-06-11T08:29:38.070Z,130.07
2018-06-11T08:32:06.789Z,123.97
2018-06-11T08:34:35.414Z,119.47
2018-06-11T08:37:03.995Z,79.17
2018-06-11T08:39:32.509Z,101.07
2018-06-11T08:42:01.067Z,109.77
2018-06-11T08:44:29.627Z,99.23
2018-06-11T08:46:58.200Z,116.53
2018-06-11T08:49:26.856Z,100.13
2018-06-11T08:51:55.425Z,102.23
2018-06-11T08:54:24.081Z,90.73
2018-06-11T08:56:52.638Z,69.03
2018-06-11T08:59:21.149Z,115.03
2018-06-11T09:01:51.194Z,100.33
2018-06-11T09:04:19.795Z,103.03
2018-06-11T09:06:48.372Z,89.37
2018-06-11T09:09:17.514Z,79.43
2018-06-11T09:11:46.190Z,102.83
2018-06-11T09:14:14.727Z,87.20
2018-06-11T09:16:43.306Z,98.17
2018-06-11T09:19:11.893Z,83.80
2018-06-11T09:21:40.556Z,86.37
2018-06-11T09:24:09.479Z,75.77
2018-06-11T09:26:38.524Z,64.87
2018-06-11T09:29:07.152Z,49.67
2018-06-11T09:31:35.692Z,83.93
2018-06-11T09:34:04.285Z,56.97
2018-06-11T09:36:32.825Z,65.57
2018-06-11T09:39:01.338Z,93.90
2018-06-11T09:41:29.932Z,111.73
2018-06-11T09:43:58.534Z,136.07
2018-06-11T09:46:27.004Z,97.63
2018-06-11T09:48:55.513Z,93.57
2018-06-11T09:51:24.046Z,121.20
2018-06-11T09:53:52.610Z,137.67
2018-06-11T09:56:21.148Z,117.83
2018-06-11T09:58:49.656Z,111.70
2018-06-11T10:01:18.211Z,144.40
2018-06-11T10:03:46.824Z,107.30
2018-06-11T10:06:15.390Z,103.17
2018-06-11T10:08:44.091Z,106.67
2018-06-11T10:11:12.657Z,88.73
2018-06-11T10:13:41.234Z,97.43
2018-06-11T10:16:09.760Z,109.20
2018-06-11T10:18:38.290Z,109.07
2018-06-11T10:21:07.813Z,109.93
2018-06-11T10:23:36.381Z,120.43
2018-06-11T10:26:04.898Z,126.73
2018-06-11T10:28:33.427Z,116.57
2018-06-11T10:31:01.997Z,104.23
2018-06-11T10:33:30.519Z,105.63
2018-06-11T10:35:59.065Z,93.10
2018-06-11T10:38:27.592Z,83.70
2018-06-11T10:40:56.131Z,79.17
2018-06-11T10:43:24.759Z,81.80
2018-06-11T10:45:53.315Z,83.23
2018-06-11T10:48:21.935Z,86.30
2018-06-11T10:50:50.441Z,86.53
2018-06-11T10:53:18.957Z,88.73
2018-06-11T10:55:47.574Z,79.30
2018-06-11T10:58:16.096Z,78.67
2018-06-11T11:00:44.915Z,77.70
2018-06-11T11:03:13.472Z,82.50
2018-06-11T11:05:42.019Z,71.30
2018-06-11T11:08:10.525Z,74.60
2018-06-11T11:10:39.108Z,78.83
2018-06-11T11:13:07.645Z,79.77
2018-06-11T11:15:36.221Z,75.77
2018-06-11T11:18:04.856Z,78.30
2018-06-11T11:20:33.510Z,79.73
2018-06-11T11:23:02.292Z,81.40
2018-06-11T11:25:30.886Z,85.27
2018-06-11T11:27:59.889Z,89.93
2018-06-11T11:30:28.467Z,84.03
2018-06-11T11:32:57.036Z,86.23
2018-06-11T11:35:25.565Z,77.07
2018-06-11T11:37:54.158Z,73.57
2018-06-11T11:40:22.668Z,77.47
2018-06-11T11:42:50.916Z,77.13
2018-06-11T11:45:19.492Z,74.20
2018-06-11T11:47:48.018Z,76.03
2018-06-11T11:50:16.644Z,58.20
2018-06-11T11:52:45.188Z,56.17
2018-06-11T11:55:13.689Z,68.30
2018-06-11T11:57:42.285Z,77.60
2018-06-11T12:00:10.974Z,74.33
2018-06-11T12:02:39.598Z,72.13
2018-06-11T12:05:08.348Z,71.90
2018-06-11T12:07:36.983Z,71.47
2018-06-11T12:10:05.558Z,77.47
2018-06-11T12:12:34.143Z,51.87
2018-06-11T12:15:02.762Z,57.30
2018-06-11T12:17:31.269Z,63.07
2018-06-11T12:19:59.817Z,71.60
2018-06-11T12:22:28.007Z,48.73
2018-06-11T12:24:56.561Z,50.67
2018-06-11T12:27:24.764Z,69.53
2018-06-11T12:29:53.309Z,55.87
2018-06-11T12:32:21.834Z,63.07
2018-06-11T12:34:51.309Z,56.20
2018-06-11T12:37:19.552Z,71.67
2018-06-11T12:39:48.195Z,60.93
2018-06-11T12:42:16.750Z,48.47
2018-06-11T12:44:45.277Z,104.53
2018-06-11T12:47:13.842Z,101.07
2018-06-11T12:49:42.389Z,71.73
2018-06-11T12:52:10.935Z,31.17
2018-06-11T12:54:39.454Z,30.00
2018-06-11T12:57:08.598Z,78.33
2018-06-11T12:59:37.111Z,52.23
2018-06-11T13:02:05.890Z,34.60
2018-06-11T13:04:34.431Z,12.83
2018-06-11T13:07:02.982Z,18.47
2018-06-11T13:09:31.501Z,14.70
2018-06-11T13:12:00.061Z,11.53
2018-06-11T13:14:28.560Z,17.93
2018-06-11T13:16:57.101Z,11.33
2018-06-11T13:19:25.635Z,16.93
2018-06-11T13:21:54.229Z,39.03
2018-06-11T13:24:22.729Z,59.13
2018-06-11T13:26:51.290Z,56.70
2018-06-11T13:29:19.520Z,31.40
2018-06-11T13:31:48.690Z,19.60
2018-06-11T13:34:17.284Z,23.03
2018-06-11T13:36:45.801Z,31.90
2018-06-11T13:39:14.330Z,43.47
2018-06-11T13:41:42.881Z,22.77
2018-06-11T13:44:11.417Z,23.40
2018-06-11T13:46:39.986Z,33.03
2018-06-11T13:49:08.520Z,15.57
2018-06-11T13:51:37.057Z,16.50
2018-06-11T13:54:06.035Z,9.63
2018-06-11T13:56:34.558Z,10.33
2018-06-11T13:59:03.170Z,10.53
2018-06-11T14:01:31.759Z,10.60
2018-06-11T14:04:00.288Z,11.43
2018-06-11T14:06:28.833Z,12.43
2018-06-11T14:08:57.341Z,11.07
2018-06-11T14:11:26.041Z,15.30
2018-06-11T14:13:56.397Z,19.03
2018-06-11T14:16:25.011Z,23.97
2018-06-11T14:18:53.195Z,31.97
2018-06-11T14:21:21.738Z,23.03
2018-06-11T14:23:50.224Z,18.73
2018-06-11T14:26:18.789Z,19.57
2018-06-11T14:28:47.321Z,13.07
2018-06-11T14:31:15.832Z,12.73
2018-06-11T14:33:44.368Z,12.77
2018-06-11T14:36:12.885Z,12.23
2018-06-11T14:38:42.010Z,12.20
2018-06-11T14:41:10.583Z,12.60
2018-06-11T14:43:40.849Z,11.80
2018-06-11T14:46:09.462Z,11.57
2018-06-11T14:48:37.975Z,13.47
2018-06-11T14:51:08.345Z,18.07
2018-06-11T14:53:40.773Z,21.93
2018-06-11T14:56:15.286Z,17.60
2018-06-11T14:58:46.303Z,16.47
2018-06-11T15:01:17.711Z,15.57
2018-06-11T15:03:50.037Z,14.97
2018-06-11T15:06:21.943Z,17.47
2018-06-11T15:08:56.777Z,15.13
2018-06-11T15:11:25.677Z,14.07
2018-06-11T15:13:54.231Z,18.90
2018-06-11T15:16:22.811Z,24.67
2018-06-11T15:18:51.386Z,33.37
2018-06-11T15:21:21.436Z,24.17
2018-06-11T15:23:50.009Z,20.60
2018-06-11T15:26:18.618Z,17.50
2018-06-11T15:28:47.202Z,13.83
2018-06-11T15:31:15.745Z,17.70
2018-06-11T15:33:44.531Z,14.50
2018-06-11T15:36:13.170Z,13.27
2018-06-11T15:38:42.026Z,13.00
2018-06-11T15:41:10.554Z,13.17
2018-06-11T15:43:41.338Z,17.13
2018-06-11T15:46:10.077Z,19.40
2018-06-11T15:48:38.567Z,14.93
2018-06-11T15:51:07.677Z,21.53
2018-06-11T15:53:36.688Z,35.47
2018-06-11T15:56:05.739Z,43.40
2018-06-11T15:58:34.224Z,42.37
2018-06-11T16:01:05.245Z,18.43
2018-06-11T16:03:33.919Z,16.03
2018-06-11T16:06:02.461Z,27.33
2018-06-11T16:08:30.933Z,67.73
2018-06-11T16:10:59.219Z,86.23
2018-06-11T16:13:27.748Z,78.47
2018-06-11T16:15:56.294Z,54.97
2018-06-11T16:18:24.869Z,12.03
2018-06-11T16:20:53.402Z,10.60
2018-06-11T16:23:21.915Z,11.60
2018-06-11T16:25:50.426Z,13.63
2018-06-11T16:28:18.953Z,16.30
2018-06-11T16:30:50.340Z,19.77
2018-06-11T16:33:18.666Z,19.53
2018-06-11T16:35:47.229Z,16.90
2018-06-11T16:38:15.778Z,17.63
2018-06-11T16:40:44.326Z,18.27
2018-06-11T16:43:12.814Z,22.37
2018-06-11T16:45:41.350Z,25.33
2018-06-11T16:48:09.897Z,25.43
2018-06-11T16:50:38.380Z,29.27
2018-06-11T16:53:06.958Z,19.30
2018-06-11T16:55:35.879Z,18.47
2018-06-11T16:58:04.616Z,18.00
2018-06-11T17:00:35.232Z,16.60
2018-06-11T17:03:05.078Z,16.57
2018-06-11T17:05:35.208Z,21.47
2018-06-11T17:08:04.993Z,28.23
2018-06-11T17:10:35.073Z,33.63
2018-06-11T17:13:03.729Z,31.07
2018-06-11T17:15:35.938Z,25.93
2018-06-11T17:18:04.450Z,19.87
2018-06-11T17:20:32.940Z,13.80
2018-06-11T17:23:01.491Z,11.70
2018-06-11T17:25:30.276Z,11.90
2018-06-11T17:27:58.876Z,13.17
2018-06-11T17:30:27.373Z,16.03
2018-06-11T17:32:55.918Z,10.00
2018-06-11T17:35:24.393Z,11.93
2018-06-11T17:37:52.894Z,22.07
2018-06-11T17:40:21.425Z,14.70
2018-06-11T17:42:49.925Z,35.97
2018-06-11T17:45:18.447Z,54.53
2018-06-11T17:47:46.947Z,91.07
2018-06-11T17:50:15.611Z,130.00
2018-06-11T17:52:44.135Z,129.17
2018-06-11T17:55:17.334Z,133.97
2018-06-11T17:57:46.126Z,134.03
2018-06-11T18:00:17.058Z,106.13
2018-06-11T18:02:45.568Z,86.77
2018-06-11T18:05:14.109Z,84.10
2018-06-11T18:07:42.616Z,88.57
2018-06-11T18:10:11.128Z,92.63
2018-06-11T18:12:39.713Z,98.90
2018-06-11T18:15:07.903Z,111.50
2018-06-11T18:17:36.515Z,128.53
2018-06-11T18:20:05.209Z,136.57
2018-06-11T18:22:33.773Z,133.47
2018-06-11T18:25:02.381Z,102.93
2018-06-11T18:27:32.494Z,67.40
2018-06-11T18:30:01.191Z,62.40
2018-06-11T18:32:30.171Z,55.70
2018-06-11T18:34:58.723Z,60.63
2018-06-11T18:37:27.235Z,54.97
2018-06-11T18:39:56.469Z,61.80
2018-06-11T18:42:25.225Z,62.13
2018-06-11T18:44:53.677Z,64.80
2018-06-11T18:47:22.255Z,60.87
2018-06-11T18:49:50.753Z,54.73
2018-06-11T18:52:19.268Z,55.43
2018-06-11T18:54:48.451Z,56.30
2018-06-11T18:57:16.992Z,55.40
2018-06-11T18:59:46.427Z,53.30
2018-06-11T19:02:16.559Z,48.73
2018-06-11T19:04:47.083Z,45.20
2018-06-11T19:07:18.357Z,46.17
2018-06-11T19:09:49.136Z,39.57
2018-06-11T19:12:21.155Z,36.07
2018-06-11T19:14:51.975Z,31.30
2018-06-11T19:17:23.584Z,30.20
2018-06-11T19:19:54.038Z,33.00
2018-06-11T19:22:22.637Z,31.50
2018-06-11T19:24:51.336Z,29.97
2018-06-11T19:27:19.900Z,28.00
2018-06-11T19:29:48.418Z,31.50
2018-06-11T19:32:16.942Z,31.07
2018-06-11T19:34:45.425Z,31.33
2018-06-11T19:37:13.652Z,32.40
2018-06-11T19:39:42.173Z,28.57
2018-06-11T19:42:10.365Z,31.90
2018-06-11T19:44:38.986Z,32.63
2018-06-11T19:47:07.584Z,34.17
2018-06-11T19:49:36.077Z,34.53
2018-06-11T19:52:04.613Z,33.03
2018-06-11T19:54:33.126Z,37.37
2018-06-11T19:57:01.677Z,42.27
2018-06-11T19:59:30.169Z,37.33
2018-06-11T20:01:58.914Z,37.23
2018-06-11T20:04:27.430Z,42.03
2018-06-11T20:06:55.961Z,41.23
2018-06-11T20:09:24.558Z,34.80
2018-06-11T20:11:53.042Z,39.77
2018-06-11T20:14:24.861Z,35.07
2018-06-11T20:16:53.351Z,34.70
2018-06-11T20:19:21.885Z,34.50
2018-06-11T20:21:50.444Z,36.53
2018-06-11T20:24:18.958Z,33.53
2018-06-11T20:26:47.498Z,32.23
2018-06-11T20:29:17.437Z,34.43
2018-06-11T20:31:45.676Z,30.20
2018-06-11T20:34:14.155Z,31.77
2018-06-11T20:36:42.656Z,32.57
2018-06-11T20:39:11.346Z,42.83
2018-06-11T20:41:39.835Z,39.77
2018-06-11T20:44:08.404Z,43.90
2018-06-11T20:46:36.971Z,41.10
2018-06-11T20:49:05.715Z,32.77
2018-06-11T20:51:33.950Z,30.47
2018-06-11T20:54:02.503Z,37.67
2018-06-11T20:56:31.016Z,36.43
2018-06-11T20:58:59.541Z,33.37
2018-06-11T21:01:27.731Z,29.80
2018-06-11T21:03:56.274Z,29.23
2018-06-11T21:06:24.769Z,28.23
2018-06-11T21:08:53.277Z,36.17
2018-06-11T21:11:21.852Z,28.63
2018-06-11T21:13:50.381Z,36.80
2018-06-11T21:16:18.928Z,33.70
2018-06-11T21:18:47.408Z,36.83
2018-06-11T21:21:15.902Z,38.43
2018-06-11T21:23:44.418Z,35.70
2018-06-11T21:26:12.949Z,37.63
2018-06-11T21:28:41.497Z,36.00
2018-06-11T21:31:10.000Z,36.80
2018-06-11T21:33:40.029Z,35.60
2018-06-11T21:36:08.589Z,37.23
2018-06-11T21:38:37.084Z,34.20
2018-06-11T21:41:05.604Z,34.07
2018-06-11T21:43:34.145Z,36.70
2018-06-11T21:46:04.067Z,36.53
2018-06-11T21:48:32.625Z,39.27
2018-06-11T21:51:02.525Z,42.80
2018-06-11T21:53:30.784Z,43.70
2018-06-11T21:55:59.545Z,43.00
2018-06-11T21:58:28.373Z,38.60
2018-06-11T22:00:56.908Z,38.40
2018-06-11T22:03:25.525Z,40.13
2018-06-11T22:05:55.914Z,42.87
2018-06-11T22:08:24.975Z,36.80
2018-06-11T22:10:53.818Z,38.07
2018-06-11T22:13:23.074Z,40.00
2018-06-11T22:15:51.567Z,38.77
2018-06-11T22:18:21.190Z,39.10
2018-06-11T22:20:50.069Z,40.67
2018-06-11T22:23:20.462Z,40.67
2018-06-11T22:25:49.173Z,39.63
2018-06-11T22:28:17.731Z,42.87
2018-06-11T22:30:46.262Z,41.80
2018-06-11T22:33:14.787Z,38.67
2018-06-11T22:35:43.269Z,37.20
2018-06-11T22:38:11.867Z,35.03
2018-06-11T22:40:40.552Z,36.17
2018-06-11T22:43:09.040Z,34.87
2018-06-11T22:45:37.601Z,38.67
2018-06-11T22:48:06.095Z,39.20
2018-06-11T22:50:34.615Z,38.03
2018-06-11T22:53:03.151Z,39.57
2018-06-11T22:55:31.701Z,38.40
2018-06-11T22:58:00.204Z,41.20
2018-06-11T23:00:32.634Z,39.53
2018-06-11T23:03:01.498Z,38.63
2018-06-11T23:05:30.134Z,40.47
2018-06-11T23:07:58.359Z,41.90
2018-06-11T23:10:26.884Z,38.97
2018-06-11T23:12:56.062Z,39.67
2018-06-11T23:15:24.598Z,40.97
2018-06-11T23:17:53.099Z,40.80
2018-06-11T23:20:21.658Z,42.57
2018-06-11T23:22:50.154Z,41.43
2018-06-11T23:25:18.694Z,43.97
2018-06-11T23:27:49.684Z,40.17
2018-06-11T23:30:20.478Z,38.73
2018-06-11T23:32:49.029Z,37.97
2018-06-11T23:35:18.494Z,43.10
2018-06-11T23:37:48.051Z,40.40
2018-06-11T23:40:16.517Z,40.80
2018-06-11T23:42:45.005Z,41.00
2018-06-11T23:45:13.554Z,41.93
2018-06-11T23:47:42.741Z,46.97
2018-06-11T23:50:11.399Z,41.73
2018-06-11T23:52:39.912Z,41.67
2018-06-11T23:55:08.448Z,42.73
2018-06-11T23:57:37.826Z,41.03
